sensor_id;sensor_type;location;lat;lon;timestamp;temperature;humidity
17307;DHT22;8771;48.048;7.682;2023-03-01T00:02:30;2.60;68.30
17307;DHT22;8771;48.048;7.682;2023-03-01T00:07:32;2.60;68.40
17307;DHT22;8771;48.048;7.682;2023-03-01T00:12:34;2.70;68.20
17307;DHT22;8771;48.048;7.682;2023-03-01T00:17:38;2.90;68.00
17307;DHT22;8771;48.048;7.682;2023-03-01T00:22:40;3.00;67.80
17307;DHT22;8771;48.048;7.682;2023-03-01T00:27:42;3.10;67.70
17307;DHT22;8771;48.048;7.682;2023-03-01T00:32:45;3.10;67.70
17307;DHT22;8771;48.048;7.682;2023-03-01T00:37:47;3.10;67.60
17307;DHT22;8771;48.048;7.682;2023-03-01T00:42:54;3.20;67.70
17307;DHT22;8771;48.048;7.682;2023-03-01T00:47:57;3.20;67.70
17307;DHT22;8771;48.048;7.682;2023-03-01T00:52:59;3.20;67.80
17307;DHT22;8771;48.048;7.682;2023-03-01T00:58:01;3.20;67.90
17307;DHT22;8771;48.048;7.682;2023-03-01T01:03:04;3.20;67.90
17307;DHT22;8771;48.048;7.682;2023-03-01T01:08:06;3.20;67.90
17307;DHT22;8771;48.048;7.682;2023-03-01T01:13:08;3.10;67.90
17307;DHT22;8771;48.048;7.682;2023-03-01T01:18:12;3.10;67.90
17307;DHT22;8771;48.048;7.682;2023-03-01T01:23:14;3.10;68.00
17307;DHT22;8771;48.048;7.682;2023-03-01T01:28:16;3.10;68.00
17307;DHT22;8771;48.048;7.682;2023-03-01T01:33:19;3.10;68.00
17307;DHT22;8771;48.048;7.682;2023-03-01T01:38:22;3.10;67.90
17307;DHT22;8771;48.048;7.682;2023-03-01T01:43:26;3.10;67.80
17307;DHT22;8771;48.048;7.682;2023-03-01T01:48:37;3.00;67.80
17307;DHT22;8771;48.048;7.682;2023-03-01T01:53:42;3.00;67.90
17307;DHT22;8771;48.048;7.682;2023-03-01T01:58:47;3.00;67.90
17307;DHT22;8771;48.048;7.682;2023-03-01T02:03:51;3.00;67.90
17307;DHT22;8771;48.048;7.682;2023-03-01T02:08:53;3.00;68.00
17307;DHT22;8771;48.048;7.682;2023-03-01T02:13:56;2.90;68.00
17307;DHT22;8771;48.048;7.682;2023-03-01T02:19:00;2.90;68.10
17307;DHT22;8771;48.048;7.682;2023-03-01T02:24:10;2.90;68.00
17307;DHT22;8771;48.048;7.682;2023-03-01T02:29:17;2.80;68.10
17307;DHT22;8771;48.048;7.682;2023-03-01T02:34:21;2.80;68.20
17307;DHT22;8771;48.048;7.682;2023-03-01T02:39:27;2.80;68.30
17307;DHT22;8771;48.048;7.682;2023-03-01T02:44:32;2.70;68.40
17307;DHT22;8771;48.048;7.682;2023-03-01T02:49:36;2.60;68.40
17307;DHT22;8771;48.048;7.682;2023-03-01T02:54:42;2.60;68.50
17307;DHT22;8771;48.048;7.682;2023-03-01T02:59:50;2.50;68.60
17307;DHT22;8771;48.048;7.682;2023-03-01T03:04:53;2.50;68.60
17307;DHT22;8771;48.048;7.682;2023-03-01T03:09:55;2.40;68.50
17307;DHT22;8771;48.048;7.682;2023-03-01T03:14:58;2.40;68.40
17307;DHT22;8771;48.048;7.682;2023-03-01T03:20:00;2.40;68.30
17307;DHT22;8771;48.048;7.682;2023-03-01T03:25:05;2.40;68.30
17307;DHT22;8771;48.048;7.682;2023-03-01T03:30:14;2.40;68.20
17307;DHT22;8771;48.048;7.682;2023-03-01T03:35:16;2.40;68.20
17307;DHT22;8771;48.048;7.682;2023-03-01T03:40:18;2.40;68.30
17307;DHT22;8771;48.048;7.682;2023-03-01T03:45:22;2.40;68.40
17307;DHT22;8771;48.048;7.682;2023-03-01T03:50:24;2.40;68.40
17307;DHT22;8771;48.048;7.682;2023-03-01T03:55:26;2.40;68.30
17307;DHT22;8771;48.048;7.682;2023-03-01T04:00:33;2.30;68.30
17307;DHT22;8771;48.048;7.682;2023-03-01T04:05:36;2.40;68.30
17307;DHT22;8771;48.048;7.682;2023-03-01T04:10:40;2.30;68.30
17307;DHT22;8771;48.048;7.682;2023-03-01T04:15:44;2.30;68.30
17307;DHT22;8771;48.048;7.682;2023-03-01T04:20:46;2.30;68.30
17307;DHT22;8771;48.048;7.682;2023-03-01T04:25:49;2.30;68.30
17307;DHT22;8771;48.048;7.682;2023-03-01T04:30:57;2.30;68.30
17307;DHT22;8771;48.048;7.682;2023-03-01T04:35:59;2.30;68.30
17307;DHT22;8771;48.048;7.682;2023-03-01T04:41:01;2.30;68.30
17307;DHT22;8771;48.048;7.682;2023-03-01T04:46:07;2.30;68.20
17307;DHT22;8771;48.048;7.682;2023-03-01T04:51:10;2.40;68.10
17307;DHT22;8771;48.048;7.682;2023-03-01T04:56:14;2.50;68.10
17307;DHT22;8771;48.048;7.682;2023-03-01T05:01:20;2.60;68.00
17307;DHT22;8771;48.048;7.682;2023-03-01T05:06:22;2.60;68.00
17307;DHT22;8771;48.048;7.682;2023-03-01T05:11:24;2.60;67.90
17307;DHT22;8771;48.048;7.682;2023-03-01T05:16:31;2.70;68.00
17307;DHT22;8771;48.048;7.682;2023-03-01T05:21:33;2.70;68.00
17307;DHT22;8771;48.048;7.682;2023-03-01T05:26:34;2.80;68.00
17307;DHT22;8771;48.048;7.682;2023-03-01T05:31:42;2.80;67.90
17307;DHT22;8771;48.048;7.682;2023-03-01T05:36:44;2.80;67.90
17307;DHT22;8771;48.048;7.682;2023-03-01T05:41:46;2.80;67.80
17307;DHT22;8771;48.048;7.682;2023-03-01T05:46:49;2.90;67.90
17307;DHT22;8771;48.048;7.682;2023-03-01T05:51:52;3.00;68.00
17307;DHT22;8771;48.048;7.682;2023-03-01T05:56:55;3.10;68.00
17307;DHT22;8771;48.048;7.682;2023-03-01T06:01:58;3.10;68.10
17307;DHT22;8771;48.048;7.682;2023-03-01T06:07:00;3.10;68.20
17307;DHT22;8771;48.048;7.682;2023-03-01T06:12:02;3.20;68.30
17307;DHT22;8771;48.048;7.682;2023-03-01T06:17:06;3.10;68.30
17307;DHT22;8771;48.048;7.682;2023-03-01T06:22:08;3.10;68.50
17307;DHT22;8771;48.048;7.682;2023-03-01T06:27:10;3.00;68.50
17307;DHT22;8771;48.048;7.682;2023-03-01T06:32:14;3.00;68.60
17307;DHT22;8771;48.048;7.682;2023-03-01T06:37:16;3.00;68.60
17307;DHT22;8771;48.048;7.682;2023-03-01T06:42:18;3.00;68.60
17307;DHT22;8771;48.048;7.682;2023-03-01T06:47:21;3.00;68.60
17307;DHT22;8771;48.048;7.682;2023-03-01T06:52:23;3.00;68.60
17307;DHT22;8771;48.048;7.682;2023-03-01T06:57:25;3.00;68.60
17307;DHT22;8771;48.048;7.682;2023-03-01T07:02:29;3.10;68.60
17307;DHT22;8771;48.048;7.682;2023-03-01T07:07:30;3.10;68.60
17307;DHT22;8771;48.048;7.682;2023-03-01T07:12:33;3.10;68.60
17307;DHT22;8771;48.048;7.682;2023-03-01T07:17:36;3.10;68.50
17307;DHT22;8771;48.048;7.682;2023-03-01T07:22:39;3.10;68.50
17307;DHT22;8771;48.048;7.682;2023-03-01T07:27:42;3.10;68.50
17307;DHT22;8771;48.048;7.682;2023-03-01T07:32:45;3.10;68.30
17307;DHT22;8771;48.048;7.682;2023-03-01T07:37:47;3.20;68.20
17307;DHT22;8771;48.048;7.682;2023-03-01T07:42:55;3.20;68.20
17307;DHT22;8771;48.048;7.682;2023-03-01T07:47:58;3.30;68.10
17307;DHT22;8771;48.048;7.682;2023-03-01T07:53:00;3.40;68.00
17307;DHT22;8771;48.048;7.682;2023-03-01T07:58:03;3.40;68.00
17307;DHT22;8771;48.048;7.682;2023-03-01T08:03:06;3.50;67.90
17307;DHT22;8771;48.048;7.682;2023-03-01T08:08:08;3.70;68.00
17307;DHT22;8771;48.048;7.682;2023-03-01T08:13:11;3.80;67.90
17307;DHT22;8771;48.048;7.682;2023-03-01T08:18:14;3.90;67.90
17307;DHT22;8771;48.048;7.682;2023-03-01T08:23:16;4.10;67.90
17307;DHT22;8771;48.048;7.682;2023-03-01T08:28:18;4.20;67.80
17307;DHT22;8771;48.048;7.682;2023-03-01T08:33:21;4.30;67.80
17307;DHT22;8771;48.048;7.682;2023-03-01T08:38:23;4.40;67.80
17307;DHT22;8771;48.048;7.682;2023-03-01T08:43:26;4.60;67.80
17307;DHT22;8771;48.048;7.682;2023-03-01T08:48:29;4.70;67.80
17307;DHT22;8771;48.048;7.682;2023-03-01T08:53:32;4.80;67.70
17307;DHT22;8771;48.048;7.682;2023-03-01T08:58:34;4.90;67.70
17307;DHT22;8771;48.048;7.682;2023-03-01T09:03:37;4.90;67.60
17307;DHT22;8771;48.048;7.682;2023-03-01T09:08:41;5.00;67.60
17307;DHT22;8771;48.048;7.682;2023-03-01T09:13:43;5.00;67.70
17307;DHT22;8771;48.048;7.682;2023-03-01T09:18:49;5.00;67.70
17307;DHT22;8771;48.048;7.682;2023-03-01T09:23:51;5.00;67.70
17307;DHT22;8771;48.048;7.682;2023-03-01T09:28:55;5.00;67.70
17307;DHT22;8771;48.048;7.682;2023-03-01T09:33:59;5.10;67.60
17307;DHT22;8771;48.048;7.682;2023-03-01T09:39:01;5.20;67.60
17307;DHT22;8771;48.048;7.682;2023-03-01T09:44:12;5.30;67.40
17307;DHT22;8771;48.048;7.682;2023-03-01T09:49:19;5.30;67.30
17307;DHT22;8771;48.048;7.682;2023-03-01T09:54:22;5.40;67.30
17307;DHT22;8771;48.048;7.682;2023-03-01T09:59:28;5.40;67.20
17307;DHT22;8771;48.048;7.682;2023-03-01T10:04:44;5.50;67.20
17307;DHT22;8771;48.048;7.682;2023-03-01T10:09:47;5.50;67.10
17307;DHT22;8771;48.048;7.682;2023-03-01T10:14:55;5.60;67.20
17307;DHT22;8771;48.048;7.682;2023-03-01T10:20:15;5.70;67.10
17307;DHT22;8771;48.048;7.682;2023-03-01T10:25:38;5.90;67.10
17307;DHT22;8771;48.048;7.682;2023-03-01T10:30:42;6.00;66.90
17307;DHT22;8771;48.048;7.682;2023-03-01T10:35:46;6.20;66.70
17307;DHT22;8771;48.048;7.682;2023-03-01T10:40:54;6.40;66.60
17307;DHT22;8771;48.048;7.682;2023-03-01T10:45:57;6.40;66.50
17307;DHT22;8771;48.048;7.682;2023-03-01T10:51:07;6.50;66.60
17307;DHT22;8771;48.048;7.682;2023-03-01T10:56:10;6.60;66.50
17307;DHT22;8771;48.048;7.682;2023-03-01T11:01:25;6.70;66.40
17307;DHT22;8771;48.048;7.682;2023-03-01T11:06:29;6.80;66.40
17307;DHT22;8771;48.048;7.682;2023-03-01T11:11:32;6.60;66.40
17307;DHT22;8771;48.048;7.682;2023-03-01T11:16:36;6.50;66.70
17307;DHT22;8771;48.048;7.682;2023-03-01T11:21:43;6.50;66.90
17307;DHT22;8771;48.048;7.682;2023-03-01T11:26:49;6.60;66.80
17307;DHT22;8771;48.048;7.682;2023-03-01T11:31:55;6.60;66.70
17307;DHT22;8771;48.048;7.682;2023-03-01T11:37:02;6.50;66.80
17307;DHT22;8771;48.048;7.682;2023-03-01T11:42:14;6.50;66.90
17307;DHT22;8771;48.048;7.682;2023-03-01T11:47:29;6.60;66.90
17307;DHT22;8771;48.048;7.682;2023-03-01T11:52:42;6.80;66.60
17307;DHT22;8771;48.048;7.682;2023-03-01T11:58:08;7.00;66.50
17307;DHT22;8771;48.048;7.682;2023-03-01T12:03:25;7.20;66.40
17307;DHT22;8771;48.048;7.682;2023-03-01T12:08:34;7.30;66.30
17307;DHT22;8771;48.048;7.682;2023-03-01T12:19:30;7.90;65.80
17307;DHT22;8771;48.048;7.682;2023-03-01T12:25:03;8.10;65.40
17307;DHT22;8771;48.048;7.682;2023-03-01T12:30:29;8.20;65.50
17307;DHT22;8771;48.048;7.682;2023-03-01T12:35:50;8.20;65.60
17307;DHT22;8771;48.048;7.682;2023-03-01T12:41:28;8.20;65.70
17307;DHT22;8771;48.048;7.682;2023-03-01T12:46:45;8.30;65.80
17307;DHT22;8771;48.048;7.682;2023-03-01T12:51:54;8.20;65.80
17307;DHT22;8771;48.048;7.682;2023-03-01T12:57:03;8.10;66.00
17307;DHT22;8771;48.048;7.682;2023-03-01T13:02:15;8.10;66.90
17307;DHT22;8771;48.048;7.682;2023-03-01T13:07:28;8.20;66.20
17307;DHT22;8771;48.048;7.682;2023-03-01T13:12:52;8.20;66.20
17307;DHT22;8771;48.048;7.682;2023-03-01T13:17:55;8.20;66.30
17307;DHT22;8771;48.048;7.682;2023-03-01T13:23:23;8.20;66.30
17307;DHT22;8771;48.048;7.682;2023-03-01T13:28:39;8.20;66.40
17307;DHT22;8771;48.048;7.682;2023-03-01T13:33:43;8.20;66.30
17307;DHT22;8771;48.048;7.682;2023-03-01T13:38:47;8.10;66.40
17307;DHT22;8771;48.048;7.682;2023-03-01T13:43:51;8.10;66.40
17307;DHT22;8771;48.048;7.682;2023-03-01T13:48:55;8.10;66.40
17307;DHT22;8771;48.048;7.682;2023-03-01T13:53:58;8.40;66.20
17307;DHT22;8771;48.048;7.682;2023-03-01T13:59:05;8.50;65.80
17307;DHT22;8771;48.048;7.682;2023-03-01T14:04:22;8.50;65.80
17307;DHT22;8771;48.048;7.682;2023-03-01T14:09:28;8.60;65.90
17307;DHT22;8771;48.048;7.682;2023-03-01T14:14:41;8.70;65.80
17307;DHT22;8771;48.048;7.682;2023-03-01T14:19:48;8.80;65.70
17307;DHT22;8771;48.048;7.682;2023-03-01T14:24:58;8.80;65.50
17307;DHT22;8771;48.048;7.682;2023-03-01T14:30:04;8.90;65.60
17307;DHT22;8771;48.048;7.682;2023-03-01T14:35:20;8.90;65.60
17307;DHT22;8771;48.048;7.682;2023-03-01T14:40:27;9.00;65.70
17307;DHT22;8771;48.048;7.682;2023-03-01T14:45:30;9.10;65.60
17307;DHT22;8771;48.048;7.682;2023-03-01T14:50:34;9.10;65.60
17307;DHT22;8771;48.048;7.682;2023-03-01T14:55:38;9.00;65.70
17307;DHT22;8771;48.048;7.682;2023-03-01T15:00:48;9.00;65.90
17307;DHT22;8771;48.048;7.682;2023-03-01T15:05:51;8.90;66.10
17307;DHT22;8771;48.048;7.682;2023-03-01T15:10:58;8.90;66.10
17307;DHT22;8771;48.048;7.682;2023-03-01T15:16:08;8.80;66.00
17307;DHT22;8771;48.048;7.682;2023-03-01T15:21:17;8.80;66.00
17307;DHT22;8771;48.048;7.682;2023-03-01T15:26:25;8.80;66.00
17307;DHT22;8771;48.048;7.682;2023-03-01T15:31:31;8.80;66.00
17307;DHT22;8771;48.048;7.682;2023-03-01T15:36:43;8.70;65.90
17307;DHT22;8771;48.048;7.682;2023-03-01T15:41:48;8.70;66.00
17307;DHT22;8771;48.048;7.682;2023-03-01T15:46:51;8.70;66.00
17307;DHT22;8771;48.048;7.682;2023-03-01T15:51:54;8.70;66.00
17307;DHT22;8771;48.048;7.682;2023-03-01T15:56:57;8.70;66.00
17307;DHT22;8771;48.048;7.682;2023-03-01T16:02:00;8.80;66.10
17307;DHT22;8771;48.048;7.682;2023-03-01T16:07:02;8.70;66.10
17307;DHT22;8771;48.048;7.682;2023-03-01T16:12:08;8.60;66.20
17307;DHT22;8771;48.048;7.682;2023-03-01T16:17:15;8.50;66.20
17307;DHT22;8771;48.048;7.682;2023-03-01T16:22:17;8.40;66.40
17307;DHT22;8771;48.048;7.682;2023-03-01T16:27:26;8.30;66.50
17307;DHT22;8771;48.048;7.682;2023-03-01T16:32:29;8.20;67.40
17307;DHT22;8771;48.048;7.682;2023-03-01T16:37:32;8.10;66.70
17307;DHT22;8771;48.048;7.682;2023-03-01T16:42:35;8.10;66.90
17307;DHT22;8771;48.048;7.682;2023-03-01T16:47:39;8.00;67.00
17307;DHT22;8771;48.048;7.682;2023-03-01T16:52:41;7.90;67.00
17307;DHT22;8771;48.048;7.682;2023-03-01T16:57:43;7.80;67.00
17307;DHT22;8771;48.048;7.682;2023-03-01T17:02:47;7.70;67.00
17307;DHT22;8771;48.048;7.682;2023-03-01T17:07:49;7.60;67.00
17307;DHT22;8771;48.048;7.682;2023-03-01T17:12:51;7.40;66.80
17307;DHT22;8771;48.048;7.682;2023-03-01T17:17:55;7.40;66.80
17307;DHT22;8771;48.048;7.682;2023-03-01T17:22:57;7.30;66.70
17307;DHT22;8771;48.048;7.682;2023-03-01T17:27:59;7.30;66.70
17307;DHT22;8771;48.048;7.682;2023-03-01T17:33:03;7.30;66.60
17307;DHT22;8771;48.048;7.682;2023-03-01T17:38:05;7.30;66.50
17307;DHT22;8771;48.048;7.682;2023-03-01T17:49:06;7.30;66.40
17307;DHT22;8771;48.048;7.682;2023-03-01T17:54:08;7.20;66.20
17307;DHT22;8771;48.048;7.682;2023-03-01T17:59:09;7.20;66.20
17307;DHT22;8771;48.048;7.682;2023-03-01T18:04:13;7.20;66.40
17307;DHT22;8771;48.048;7.682;2023-03-01T18:09:18;7.20;66.40
17307;DHT22;8771;48.048;7.682;2023-03-01T18:14:20;7.30;66.50
17307;DHT22;8771;48.048;7.682;2023-03-01T18:19:23;7.30;66.70
17307;DHT22;8771;48.048;7.682;2023-03-01T18:24:25;7.30;66.70
17307;DHT22;8771;48.048;7.682;2023-03-01T18:29:27;7.30;66.90
17307;DHT22;8771;48.048;7.682;2023-03-01T18:34:31;7.30;66.90
17307;DHT22;8771;48.048;7.682;2023-03-01T18:39:34;7.30;67.00
17307;DHT22;8771;48.048;7.682;2023-03-01T18:44:36;7.30;67.00
17307;DHT22;8771;48.048;7.682;2023-03-01T18:49:39;7.20;67.00
17307;DHT22;8771;48.048;7.682;2023-03-01T19:00:38;7.20;67.10
17307;DHT22;8771;48.048;7.682;2023-03-01T19:05:42;7.00;67.10
17307;DHT22;8771;48.048;7.682;2023-03-01T19:10:44;6.90;67.30
17307;DHT22;8771;48.048;7.682;2023-03-01T19:15:46;6.90;67.50
17307;DHT22;8771;48.048;7.682;2023-03-01T19:20:56;6.70;67.50
17307;DHT22;8771;48.048;7.682;2023-03-01T19:25:59;6.70;67.80
17307;DHT22;8771;48.048;7.682;2023-03-01T19:31:04;6.60;67.70
17307;DHT22;8771;48.048;7.682;2023-03-01T19:36:09;6.60;67.70
17307;DHT22;8771;48.048;7.682;2023-03-01T19:41:14;6.60;67.70
17307;DHT22;8771;48.048;7.682;2023-03-01T19:52:14;6.50;67.70
17307;DHT22;8771;48.048;7.682;2023-03-01T19:57:16;6.40;67.70
17307;DHT22;8771;48.048;7.682;2023-03-01T20:02:18;6.40;67.70
17307;DHT22;8771;48.048;7.682;2023-03-01T20:07:21;6.30;67.80
17307;DHT22;8771;48.048;7.682;2023-03-01T20:12:23;6.30;67.80
17307;DHT22;8771;48.048;7.682;2023-03-01T20:17:25;6.30;67.80
17307;DHT22;8771;48.048;7.682;2023-03-01T20:22:28;6.30;67.80
17307;DHT22;8771;48.048;7.682;2023-03-01T20:27:31;6.20;67.70
17307;DHT22;8771;48.048;7.682;2023-03-01T20:32:33;6.20;67.70
17307;DHT22;8771;48.048;7.682;2023-03-01T20:37:43;6.20;67.80
17307;DHT22;8771;48.048;7.682;2023-03-01T20:42:45;6.20;67.80
17307;DHT22;8771;48.048;7.682;2023-03-01T20:47:48;6.20;67.80
17307;DHT22;8771;48.048;7.682;2023-03-01T20:52:51;6.20;67.70
17307;DHT22;8771;48.048;7.682;2023-03-01T20:57:53;6.20;67.70
17307;DHT22;8771;48.048;7.682;2023-03-01T21:02:55;6.20;67.70
17307;DHT22;8771;48.048;7.682;2023-03-01T21:07:58;6.30;67.70
17307;DHT22;8771;48.048;7.682;2023-03-01T21:13:02;6.20;67.50
17307;DHT22;8771;48.048;7.682;2023-03-01T21:18:04;6.20;67.70
17307;DHT22;8771;48.048;7.682;2023-03-01T21:23:07;6.20;67.70
17307;DHT22;8771;48.048;7.682;2023-03-01T21:28:09;6.10;67.70
17307;DHT22;8771;48.048;7.682;2023-03-01T21:33:11;6.10;67.90
17307;DHT22;8771;48.048;7.682;2023-03-01T21:38:15;6.00;67.80
17307;DHT22;8771;48.048;7.682;2023-03-01T21:43:17;6.10;67.90
17307;DHT22;8771;48.048;7.682;2023-03-01T21:48:19;6.00;67.70
17307;DHT22;8771;48.048;7.682;2023-03-01T21:53:22;6.00;67.70
17307;DHT22;8771;48.048;7.682;2023-03-01T21:58:24;6.10;67.80
17307;DHT22;8771;48.048;7.682;2023-03-01T22:03:27;6.10;67.80
17307;DHT22;8771;48.048;7.682;2023-03-01T22:08:31;6.10;67.80
17307;DHT22;8771;48.048;7.682;2023-03-01T22:13:33;6.10;67.80
17307;DHT22;8771;48.048;7.682;2023-03-01T22:24:33;6.10;67.70
17307;DHT22;8771;48.048;7.682;2023-03-01T22:29:35;6.10;67.70
17307;DHT22;8771;48.048;7.682;2023-03-01T22:34:37;6.10;67.80
17307;DHT22;8771;48.048;7.682;2023-03-01T22:39:41;6.00;67.70
17307;DHT22;8771;48.048;7.682;2023-03-01T22:44:43;6.00;67.80
17307;DHT22;8771;48.048;7.682;2023-03-01T22:49:45;6.00;67.90
17307;DHT22;8771;48.048;7.682;2023-03-01T22:54:52;6.00;67.80
17307;DHT22;8771;48.048;7.682;2023-03-01T22:59:54;6.00;67.90
17307;DHT22;8771;48.048;7.682;2023-03-01T23:04:56;5.90;68.60
17307;DHT22;8771;48.048;7.682;2023-03-01T23:10:00;5.90;67.90
17307;DHT22;8771;48.048;7.682;2023-03-01T23:20:59;5.80;67.90
17307;DHT22;8771;48.048;7.682;2023-03-01T23:26:02;5.80;67.90
17307;DHT22;8771;48.048;7.682;2023-03-01T23:31:07;5.70;68.00
17307;DHT22;8771;48.048;7.682;2023-03-01T23:36:15;5.70;68.20
17307;DHT22;8771;48.048;7.682;2023-03-01T23:41:20;5.60;68.20
17307;DHT22;8771;48.048;7.682;2023-03-01T23:46:24;5.50;68.30
17307;DHT22;8771;48.048;7.682;2023-03-01T23:51:26;5.40;68.40
17307;DHT22;8771;48.048;7.682;2023-03-01T23:56:32;5.20;68.50
